createdAt,value
2019-01-13T00:00:11.503Z,1004.67
2019-01-13T00:01:04.444Z,1004.77
2019-01-13T00:02:04.444Z,1004.79
2019-01-13T00:03:04.453Z,1004.75
2019-01-13T00:04:04.467Z,1004.83
2019-01-13T00:05:04.486Z,1004.82
2019-01-13T00:06:04.482Z,1004.80
2019-01-13T00:07:04.506Z,1004.81
2019-01-13T00:08:04.507Z,1004.78
2019-01-13T00:09:04.518Z,1004.79
2019-01-13T00:10:04.534Z,1004.79
2019-01-13T00:11:04.551Z,1004.77
2019-01-13T00:12:04.569Z,1004.75
2019-01-13T00:13:04.564Z,1004.77
2019-01-13T00:14:04.571Z,1004.78
2019-01-13T00:15:04.581Z,1004.81
2019-01-13T00:16:04.592Z,1004.80
2019-01-13T00:17:04.671Z,1004.78
2019-01-13T00:18:04.620Z,1004.80
2019-01-13T00:19:04.641Z,1004.82
2019-01-13T00:20:04.638Z,1004.79
2019-01-13T00:21:04.647Z,1004.81
2019-01-13T00:22:04.659Z,1004.81
2019-01-13T00:23:04.667Z,1004.84
2019-01-13T00:24:04.676Z,1004.87
2019-01-13T00:25:04.691Z,1004.87
2019-01-13T00:26:04.705Z,1004.84
2019-01-13T00:27:04.713Z,1004.91
2019-01-13T00:28:04.722Z,1004.86
2019-01-13T00:29:04.739Z,1004.86
2019-01-13T00:30:04.744Z,1004.94
2019-01-13T00:31:04.758Z,1004.93
2019-01-13T00:32:04.763Z,1004.92
2019-01-13T00:33:04.777Z,1004.91
2019-01-13T00:34:04.787Z,1004.89
2019-01-13T00:35:04.797Z,1004.86
2019-01-13T00:36:04.807Z,1004.90
2019-01-13T00:37:04.819Z,1004.90
2019-01-13T00:38:04.833Z,1004.85
2019-01-13T00:39:04.842Z,1004.88
2019-01-13T00:40:04.852Z,1004.90
2019-01-13T00:41:04.862Z,1004.89
2019-01-13T00:42:04.874Z,1004.88
2019-01-13T00:43:04.884Z,1004.91
2019-01-13T00:44:04.898Z,1004.82
2019-01-13T00:45:04.911Z,1004.86
2019-01-13T00:46:04.916Z,1004.81
2019-01-13T00:47:04.926Z,1004.79
2019-01-13T00:48:04.976Z,1004.76
2019-01-13T00:49:04.956Z,1004.76
2019-01-13T00:50:04.959Z,1004.75
2019-01-13T00:51:04.968Z,1004.71
2019-01-13T00:52:04.983Z,1004.76
2019-01-13T00:53:04.993Z,1004.70
2019-01-13T00:54:05.002Z,1004.70
2019-01-13T00:55:05.019Z,1004.67
2019-01-13T00:56:05.026Z,1004.70
2019-01-13T00:57:05.038Z,1004.69
2019-01-13T00:58:05.052Z,1004.74
2019-01-13T00:59:05.057Z,1004.64
2019-01-13T01:00:05.080Z,1004.65
2019-01-13T01:01:05.080Z,1004.62
2019-01-13T01:02:05.093Z,1004.61
2019-01-13T01:03:05.104Z,1004.63
2019-01-13T01:04:05.109Z,1004.64
2019-01-13T01:05:05.126Z,1004.62
2019-01-13T01:06:05.133Z,1004.65
2019-01-13T01:07:05.145Z,1004.64
2019-01-13T01:08:05.156Z,1004.73
2019-01-13T01:09:05.168Z,1004.66
2019-01-13T01:10:05.184Z,1004.69
2019-01-13T01:11:05.192Z,1004.63
2019-01-13T01:12:05.201Z,1004.64
2019-01-13T01:13:05.207Z,1004.63
2019-01-13T01:14:05.220Z,1004.59
2019-01-13T01:15:05.230Z,1004.58
2019-01-13T01:16:05.242Z,1004.60
2019-01-13T01:17:05.264Z,1004.55
2019-01-13T01:18:05.265Z,1004.59
2019-01-13T01:19:05.284Z,1004.54
2019-01-13T01:20:05.296Z,1004.51
2019-01-13T01:21:05.298Z,1004.43
2019-01-13T01:22:05.304Z,1004.42
2019-01-13T01:23:05.316Z,1004.43
2019-01-13T01:24:05.326Z,1004.40
2019-01-13T01:25:05.340Z,1004.44
2019-01-13T01:26:05.349Z,1004.44
2019-01-13T01:27:05.361Z,1004.36
2019-01-13T01:28:05.368Z,1004.40
2019-01-13T01:29:05.388Z,1004.29
2019-01-13T01:30:05.393Z,1004.38
2019-01-13T01:31:05.555Z,1004.43
2019-01-13T01:32:05.414Z,1004.43
2019-01-13T01:33:05.427Z,1004.44
2019-01-13T01:34:05.438Z,1004.40
2019-01-13T01:35:05.450Z,1004.46
2019-01-13T01:36:05.458Z,1004.45
2019-01-13T01:37:05.475Z,1004.38
2019-01-13T01:38:05.478Z,1004.38
2019-01-13T01:39:05.490Z,1004.38
2019-01-13T01:40:05.501Z,1004.38
2019-01-13T01:41:05.509Z,1004.40
2019-01-13T01:42:05.534Z,1004.40
2019-01-13T01:43:05.532Z,1004.41
2019-01-13T01:44:05.574Z,1004.39
2019-01-13T01:45:05.552Z,1004.36
2019-01-13T01:46:05.566Z,1004.36
2019-01-13T01:47:05.644Z,1004.36
2019-01-13T01:48:05.584Z,1004.35
2019-01-13T01:49:05.602Z,1004.32
2019-01-13T01:50:05.611Z,1004.34
2019-01-13T01:51:05.620Z,1004.31
2019-01-13T01:52:05.632Z,1004.30
2019-01-13T01:53:05.645Z,1004.35
2019-01-13T01:54:05.652Z,1004.30
2019-01-13T01:55:05.663Z,1004.28
2019-01-13T01:56:05.674Z,1004.27
2019-01-13T01:57:05.682Z,1004.20
2019-01-13T01:58:05.697Z,1004.19
2019-01-13T01:59:05.708Z,1004.11
2019-01-13T02:00:05.716Z,1004.13
2019-01-13T02:01:05.728Z,1004.07
2019-01-13T02:02:05.742Z,1004.09
2019-01-13T02:03:05.751Z,1004.10
2019-01-13T02:04:05.761Z,1004.14
2019-01-13T02:05:05.802Z,1004.09
2019-01-13T02:06:05.781Z,1004.11
2019-01-13T02:07:05.790Z,1004.12
2019-01-13T02:08:05.801Z,1004.05
2019-01-13T02:09:05.815Z,1003.98
2019-01-13T02:10:05.825Z,1003.95
2019-01-13T02:11:05.838Z,1003.93
2019-01-13T02:12:05.848Z,1003.99
2019-01-13T02:13:05.860Z,1004.04
2019-01-13T02:14:05.867Z,1004.04
2019-01-13T02:15:05.884Z,1004.04
2019-01-13T02:16:05.892Z,1003.97
2019-01-13T02:17:05.904Z,1003.94
2019-01-13T02:18:05.919Z,1003.97
2019-01-13T02:19:05.931Z,1003.91
2019-01-13T02:20:05.983Z,1003.89
2019-01-13T02:21:05.946Z,1003.83
2019-01-13T02:22:05.994Z,1003.81
2019-01-13T02:23:05.967Z,1003.81
2019-01-13T02:24:05.981Z,1003.79
2019-01-13T02:25:05.992Z,1003.73
2019-01-13T02:26:06.001Z,1003.75
2019-01-13T02:27:06.012Z,1003.71
2019-01-13T02:28:06.022Z,1003.76
2019-01-13T02:29:06.033Z,1003.72
2019-01-13T02:30:06.042Z,1003.79
2019-01-13T02:31:06.056Z,1003.79
2019-01-13T02:32:06.087Z,1003.81
2019-01-13T02:33:06.095Z,1003.78
2019-01-13T02:34:06.088Z,1003.79
2019-01-13T02:35:06.102Z,1003.73
2019-01-13T02:36:06.113Z,1003.74
2019-01-13T02:37:06.123Z,1003.74
2019-01-13T02:38:06.144Z,1003.78
2019-01-13T02:39:06.143Z,1003.87
2019-01-13T02:40:06.153Z,1003.91
2019-01-13T02:41:06.166Z,1003.87
2019-01-13T02:42:06.177Z,1003.81
2019-01-13T02:43:06.191Z,1003.79
2019-01-13T02:44:06.201Z,1003.73
2019-01-13T02:45:06.212Z,1003.73
2019-01-13T02:46:06.227Z,1003.78
2019-01-13T02:47:06.233Z,1003.83
2019-01-13T02:48:06.243Z,1003.91
2019-01-13T02:49:06.257Z,1003.92
2019-01-13T02:50:06.269Z,1003.92
2019-01-13T02:51:06.296Z,1003.88
2019-01-13T02:52:06.287Z,1003.91
2019-01-13T02:53:06.300Z,1003.95
2019-01-13T02:54:06.309Z,1004.00
2019-01-13T02:55:06.320Z,1003.98
2019-01-13T02:56:06.337Z,1003.95
2019-01-13T02:57:06.352Z,1003.97
2019-01-13T02:58:06.364Z,1003.93
2019-01-13T02:59:06.365Z,1003.97
2019-01-13T03:00:06.378Z,1003.96
2019-01-13T03:01:06.397Z,1003.91
2019-01-13T03:02:06.400Z,1003.90
2019-01-13T03:03:06.411Z,1003.89
2019-01-13T03:04:06.423Z,1003.89
2019-01-13T03:05:06.446Z,1003.89
2019-01-13T03:06:06.445Z,1003.91
2019-01-13T03:07:06.458Z,1003.86
2019-01-13T03:08:06.539Z,1003.82
2019-01-13T03:09:06.482Z,1003.80
2019-01-13T03:10:06.491Z,1003.74
2019-01-13T03:11:06.499Z,1003.74
2019-01-13T03:12:06.508Z,1003.71
2019-01-13T03:13:06.521Z,1003.67
2019-01-13T03:14:06.533Z,1003.67
2019-01-13T03:15:06.543Z,1003.66
2019-01-13T03:16:06.555Z,1003.65
2019-01-13T03:17:06.564Z,1003.60
2019-01-13T03:18:06.572Z,1003.54
2019-01-13T03:19:06.580Z,1003.62
2019-01-13T03:20:06.590Z,1003.62
2019-01-13T03:21:06.604Z,1003.57
2019-01-13T03:22:06.640Z,1003.53
2019-01-13T03:23:06.829Z,1003.43
2019-01-13T03:24:06.639Z,1003.41
2019-01-13T03:25:06.647Z,1003.40
2019-01-13T03:26:06.659Z,1003.43
2019-01-13T03:27:06.667Z,1003.37
2019-01-13T03:28:06.687Z,1003.34
2019-01-13T03:29:06.694Z,1003.32
2019-01-13T03:30:06.704Z,1003.32
2019-01-13T03:31:12.034Z,1003.34
2019-01-13T03:32:06.730Z,1003.30
2019-01-13T03:33:06.848Z,1003.31
2019-01-13T03:34:06.750Z,1003.24
2019-01-13T03:35:06.757Z,1003.21
2019-01-13T03:36:06.771Z,1003.26
2019-01-13T03:37:06.779Z,1003.20
2019-01-13T03:38:06.790Z,1003.23
2019-01-13T03:39:06.804Z,1003.25
2019-01-13T03:40:06.812Z,1003.17
2019-01-13T03:41:06.830Z,1003.18
2019-01-13T03:42:06.859Z,1003.13
2019-01-13T03:43:06.847Z,1003.14
2019-01-13T03:44:06.859Z,1003.16
2019-01-13T03:45:06.871Z,1003.08
2019-01-13T03:46:06.885Z,1003.13
2019-01-13T03:47:06.890Z,1003.13
2019-01-13T03:48:06.902Z,1003.09
2019-01-13T03:49:06.925Z,1003.09
2019-01-13T03:50:06.927Z,1002.97
2019-01-13T03:51:06.939Z,1002.91
2019-01-13T03:52:06.951Z,1002.87
2019-01-13T03:53:06.962Z,1002.82
2019-01-13T03:54:06.971Z,1002.86
2019-01-13T03:55:06.988Z,1002.85
2019-01-13T03:56:06.995Z,1002.82
2019-01-13T03:57:07.009Z,1002.87
2019-01-13T03:58:07.017Z,1002.78
2019-01-13T03:59:07.143Z,1002.85
2019-01-13T04:00:07.038Z,1002.75
2019-01-13T04:01:07.053Z,1002.73
2019-01-13T04:02:07.063Z,1002.72
2019-01-13T04:03:07.109Z,1002.67
2019-01-13T04:04:07.081Z,1002.73
2019-01-13T04:05:07.095Z,1002.70
2019-01-13T04:06:07.110Z,1002.71
2019-01-13T04:07:07.142Z,1002.70
2019-01-13T04:08:07.127Z,1002.67
2019-01-13T04:09:07.165Z,1002.67
2019-01-13T04:10:07.151Z,1002.72
2019-01-13T04:11:07.164Z,1002.68
2019-01-13T04:12:07.174Z,1002.65
2019-01-13T04:13:07.186Z,1002.62
2019-01-13T04:14:07.199Z,1002.58
2019-01-13T04:15:07.219Z,1002.54
2019-01-13T04:16:07.217Z,1002.47
2019-01-13T04:17:07.229Z,1002.43
2019-01-13T04:18:07.238Z,1002.41
2019-01-13T04:19:07.252Z,1002.43
2019-01-13T04:20:07.276Z,1002.42
2019-01-13T04:21:07.276Z,1002.38
2019-01-13T04:22:07.285Z,1002.36
2019-01-13T04:23:07.296Z,1002.32
2019-01-13T04:24:07.308Z,1002.32
2019-01-13T04:25:07.321Z,1002.28
2019-01-13T04:26:07.337Z,1002.27
2019-01-13T04:27:07.339Z,1002.22
2019-01-13T04:28:07.354Z,1002.19
2019-01-13T04:29:07.365Z,1002.24
2019-01-13T04:30:07.378Z,1002.22
2019-01-13T04:31:07.385Z,1002.22
2019-01-13T04:32:07.416Z,1002.13
2019-01-13T04:33:07.410Z,1002.10
2019-01-13T04:34:07.422Z,1002.08
2019-01-13T04:35:07.434Z,1002.09
2019-01-13T04:36:07.441Z,1002.03
2019-01-13T04:37:07.462Z,1002.11
2019-01-13T04:38:07.465Z,1002.02
2019-01-13T04:39:07.479Z,1002.01
2019-01-13T04:40:07.489Z,1002.02
2019-01-13T04:41:07.500Z,1001.99
2019-01-13T04:42:07.507Z,1001.93
2019-01-13T04:43:07.522Z,1001.92
2019-01-13T04:44:07.634Z,1001.94
2019-01-13T04:45:07.544Z,1001.92
2019-01-13T04:46:07.556Z,1001.90
2019-01-13T04:47:07.566Z,1001.89
2019-01-13T04:48:07.630Z,1001.90
2019-01-13T04:49:07.589Z,1001.89
2019-01-13T04:50:07.600Z,1001.86
2019-01-13T04:51:07.616Z,1001.83
2019-01-13T04:52:07.621Z,1001.82
2019-01-13T04:53:07.653Z,1001.73
2019-01-13T04:54:07.642Z,1001.72
2019-01-13T04:55:07.659Z,1001.71
2019-01-13T04:56:07.668Z,1001.71
2019-01-13T04:57:07.680Z,1001.73
2019-01-13T04:58:07.687Z,1001.75
2019-01-13T04:59:07.854Z,1001.73
2019-01-13T05:00:07.715Z,1001.71
2019-01-13T05:01:07.735Z,1001.71
2019-01-13T05:03:07.742Z,1001.66
2019-01-13T05:04:07.756Z,1001.66
2019-01-13T05:05:07.769Z,1001.67
2019-01-13T05:06:07.789Z,1001.68
2019-01-13T05:07:07.786Z,1001.64
2019-01-13T05:08:07.803Z,1001.63
2019-01-13T05:09:07.818Z,1001.60
2019-01-13T05:10:07.821Z,1001.54
2019-01-13T05:11:07.834Z,1001.55
2019-01-13T05:12:07.849Z,1001.54
2019-01-13T05:13:07.857Z,1001.50
2019-01-13T05:14:07.869Z,1001.46
2019-01-13T05:15:07.889Z,1001.49
2019-01-13T05:16:07.890Z,1001.42
2019-01-13T05:17:07.905Z,1001.44
2019-01-13T05:18:07.916Z,1001.41
2019-01-13T05:19:07.931Z,1001.43
2019-01-13T05:20:07.937Z,1001.39
2019-01-13T05:21:07.970Z,1001.39
2019-01-13T05:22:07.961Z,1001.35
2019-01-13T05:23:07.970Z,1001.37
2019-01-13T05:24:08.003Z,1001.42
2019-01-13T05:25:07.995Z,1001.39
2019-01-13T05:26:08.002Z,1001.41
2019-01-13T05:27:08.022Z,1001.35
2019-01-13T05:28:08.025Z,1001.36
2019-01-13T05:29:08.039Z,1001.34
2019-01-13T05:30:08.068Z,1001.31
2019-01-13T05:31:08.068Z,1001.30
2019-01-13T05:32:08.074Z,1001.37
2019-01-13T05:33:08.085Z,1001.33
2019-01-13T05:34:08.093Z,1001.30
2019-01-13T05:35:08.104Z,1001.28
2019-01-13T05:36:08.118Z,1001.25
2019-01-13T05:37:08.128Z,1001.25
2019-01-13T05:38:08.158Z,1001.29
2019-01-13T05:39:08.153Z,1001.28
2019-01-13T05:40:08.178Z,1001.24
2019-01-13T05:41:08.180Z,1001.23
2019-01-13T05:42:08.203Z,1001.19
2019-01-13T05:43:08.194Z,1001.21
2019-01-13T05:44:08.207Z,1001.25
2019-01-13T05:45:08.233Z,1001.29
2019-01-13T05:46:08.234Z,1001.29
2019-01-13T05:47:08.242Z,1001.26
2019-01-13T05:48:08.254Z,1001.25
2019-01-13T05:49:08.265Z,1001.19
2019-01-13T05:50:08.275Z,1001.15
2019-01-13T05:51:08.285Z,1001.14
2019-01-13T05:52:08.293Z,1001.10
2019-01-13T05:53:08.314Z,1001.14
2019-01-13T05:54:08.323Z,1001.09
2019-01-13T05:55:08.328Z,1001.08
2019-01-13T05:56:08.340Z,1001.10
2019-01-13T05:57:08.368Z,1001.04
2019-01-13T05:58:08.366Z,1001.12
2019-01-13T05:59:08.373Z,1001.07
2019-01-13T06:00:08.387Z,1001.03
2019-01-13T06:01:08.396Z,1001.00
2019-01-13T06:02:08.409Z,1001.00
2019-01-13T06:03:08.419Z,1000.96
2019-01-13T06:04:08.436Z,1000.94
2019-01-13T06:05:08.442Z,1000.90
2019-01-13T06:06:08.452Z,1000.87
2019-01-13T06:07:08.480Z,1000.86
2019-01-13T06:08:08.481Z,1000.83
2019-01-13T06:09:08.486Z,1000.83
2019-01-13T06:10:08.496Z,1000.80
2019-01-13T06:11:08.510Z,1000.75
2019-01-13T06:12:08.531Z,1000.74
2019-01-13T06:13:08.535Z,1000.71
2019-01-13T06:14:08.539Z,1000.67
2019-01-13T06:15:08.552Z,1000.66
2019-01-13T06:16:08.562Z,1000.63
2019-01-13T06:17:08.578Z,1000.57
2019-01-13T06:18:08.587Z,1000.58
2019-01-13T06:19:08.708Z,1000.58
2019-01-13T06:20:08.610Z,1000.50
2019-01-13T06:21:08.622Z,1000.52
2019-01-13T06:22:08.631Z,1000.46
2019-01-13T06:23:08.645Z,1000.47
2019-01-13T06:24:09.421Z,1000.43
2019-01-13T06:25:08.667Z,1000.42
2019-01-13T06:26:08.679Z,1000.41
2019-01-13T06:27:08.690Z,1000.36
2019-01-13T06:28:08.699Z,1000.36
2019-01-13T06:29:08.710Z,1000.34
2019-01-13T06:30:09.000Z,1000.29
2019-01-13T06:31:08.731Z,1000.35
2019-01-13T06:32:08.748Z,1000.29
2019-01-13T06:33:08.754Z,1000.33
2019-01-13T06:34:08.786Z,1000.28
2019-01-13T06:35:08.775Z,1000.27
2019-01-13T06:36:08.790Z,1000.27
2019-01-13T06:37:08.801Z,1000.25
2019-01-13T06:38:08.909Z,1000.22
2019-01-13T06:39:08.842Z,1000.25
2019-01-13T06:40:08.830Z,1000.19
2019-01-13T06:41:08.877Z,1000.16
2019-01-13T06:42:08.852Z,1000.19
2019-01-13T06:43:08.864Z,1000.11
2019-01-13T06:44:08.877Z,1000.10
2019-01-13T06:45:08.889Z,1000.03
2019-01-13T06:46:08.899Z,1000.01
2019-01-13T06:47:08.910Z,1000.03
2019-01-13T06:48:08.922Z,1000.02
2019-01-13T06:49:08.932Z,999.98
2019-01-13T06:50:08.944Z,999.99
2019-01-13T06:51:08.954Z,999.99
2019-01-13T06:52:08.964Z,999.97
2019-01-13T06:53:08.977Z,999.96
2019-01-13T06:54:08.987Z,999.99
2019-01-13T06:55:08.995Z,999.93
2019-01-13T06:56:09.010Z,999.96
2019-01-13T06:57:09.022Z,999.90
2019-01-13T06:58:09.031Z,999.94
2019-01-13T06:59:09.042Z,999.90
2019-01-13T07:00:09.058Z,999.92
2019-01-13T07:01:09.067Z,999.89
2019-01-13T07:02:09.074Z,999.91
2019-01-13T07:03:09.086Z,999.88
2019-01-13T07:04:09.097Z,999.91
2019-01-13T07:05:09.111Z,999.83
2019-01-13T07:06:09.119Z,999.89
2019-01-13T07:07:09.129Z,999.84
2019-01-13T07:08:09.144Z,999.79
2019-01-13T07:09:09.160Z,999.79
2019-01-13T07:10:09.165Z,999.74
2019-01-13T07:11:09.180Z,999.74
2019-01-13T07:12:09.191Z,999.72
2019-01-13T07:13:09.199Z,999.69
2019-01-13T07:14:09.210Z,999.70
2019-01-13T07:15:09.238Z,999.76
2019-01-13T07:16:09.235Z,999.69
2019-01-13T07:17:09.244Z,999.74
2019-01-13T07:18:09.252Z,999.68
2019-01-13T07:19:09.271Z,999.67
2019-01-13T07:20:09.279Z,999.63
2019-01-13T07:21:09.288Z,999.67
2019-01-13T07:22:09.302Z,999.63
2019-01-13T07:23:09.313Z,999.68
2019-01-13T07:24:09.320Z,999.67
2019-01-13T07:25:09.335Z,999.59
2019-01-13T07:26:09.595Z,999.59
2019-01-13T07:27:09.356Z,999.56
2019-01-13T07:28:09.367Z,999.54
2019-01-13T07:29:09.375Z,999.61
2019-01-13T07:30:09.391Z,999.49
2019-01-13T07:31:09.397Z,999.44
2019-01-13T07:32:10.821Z,999.45
2019-01-13T07:33:09.421Z,999.41
2019-01-13T07:34:09.432Z,999.49
2019-01-13T07:35:09.443Z,999.47
2019-01-13T07:36:09.458Z,999.42
2019-01-13T07:37:09.467Z,999.44
2019-01-13T07:38:09.479Z,999.45
2019-01-13T07:39:09.489Z,999.34
2019-01-13T07:40:09.500Z,999.38
2019-01-13T07:41:09.518Z,999.29
2019-01-13T07:42:09.520Z,999.31
2019-01-13T07:43:09.536Z,999.35
2019-01-13T07:44:09.543Z,999.30
2019-01-13T07:45:09.556Z,999.26
2019-01-13T07:46:09.576Z,999.28
2019-01-13T07:47:09.580Z,999.22
2019-01-13T07:48:09.587Z,999.20
2019-01-13T07:49:09.600Z,999.22
2019-01-13T07:50:09.626Z,999.19
2019-01-13T07:51:09.624Z,999.24
2019-01-13T07:52:09.634Z,999.24
2019-01-13T07:53:09.646Z,999.19
2019-01-13T07:54:09.658Z,999.15
2019-01-13T07:55:09.674Z,999.16
2019-01-13T07:56:09.680Z,999.14
2019-01-13T07:57:09.723Z,999.11
2019-01-13T07:58:09.700Z,999.07
2019-01-13T07:59:09.711Z,999.04
2019-01-13T08:00:09.725Z,999.02
2019-01-13T08:01:09.735Z,999.01
2019-01-13T08:02:09.745Z,999.03
2019-01-13T08:03:09.766Z,998.99
2019-01-13T08:04:09.769Z,998.99
2019-01-13T08:05:09.776Z,998.92
2019-01-13T08:06:09.786Z,998.95
2019-01-13T08:07:09.802Z,998.93
2019-01-13T08:08:09.812Z,998.89
2019-01-13T08:09:09.925Z,998.89
2019-01-13T08:10:09.835Z,998.92
2019-01-13T08:11:09.854Z,998.91
2019-01-13T08:12:09.861Z,998.93
2019-01-13T08:13:09.890Z,998.96
2019-01-13T08:14:09.881Z,998.96
2019-01-13T08:15:09.893Z,998.93
2019-01-13T08:16:09.902Z,998.91
2019-01-13T08:17:09.918Z,998.92
2019-01-13T08:18:09.926Z,998.92
2019-01-13T08:19:09.940Z,998.95
2019-01-13T08:20:09.953Z,998.97
2019-01-13T08:21:09.961Z,998.92
2019-01-13T08:22:09.970Z,998.87
2019-01-13T08:23:09.986Z,998.86
2019-01-13T08:24:09.996Z,998.81
2019-01-13T08:25:10.004Z,998.81
2019-01-13T08:26:10.015Z,998.82
2019-01-13T08:27:10.032Z,998.75
2019-01-13T08:28:10.045Z,998.82
2019-01-13T08:29:10.053Z,998.83
2019-01-13T08:30:10.067Z,998.78
2019-01-13T08:31:10.081Z,998.73
2019-01-13T08:32:10.093Z,998.74
2019-01-13T08:33:10.101Z,998.75
2019-01-13T08:34:10.108Z,998.81
2019-01-13T08:35:10.121Z,998.85
2019-01-13T08:36:10.135Z,998.80
2019-01-13T08:37:10.145Z,998.80
2019-01-13T08:38:10.155Z,998.77
2019-01-13T08:39:10.171Z,998.68
2019-01-13T08:40:10.229Z,998.66
2019-01-13T08:41:10.188Z,998.65
2019-01-13T08:42:10.204Z,998.69
2019-01-13T08:43:10.214Z,998.71
2019-01-13T08:44:10.226Z,998.61
2019-01-13T08:45:10.244Z,998.65
2019-01-13T08:46:10.246Z,998.57
2019-01-13T08:47:10.261Z,998.55
2019-01-13T08:48:10.367Z,998.49
2019-01-13T08:49:10.346Z,998.44
2019-01-13T08:50:10.394Z,998.37
2019-01-13T08:51:10.311Z,998.39
2019-01-13T08:52:10.315Z,998.39
2019-01-13T08:53:10.324Z,998.40
2019-01-13T08:54:10.371Z,998.46
2019-01-13T08:55:10.349Z,998.42
2019-01-13T08:56:10.361Z,998.44
2019-01-13T08:57:10.375Z,998.43
2019-01-13T08:58:10.383Z,998.39
2019-01-13T08:59:10.393Z,998.39
2019-01-13T09:00:10.409Z,998.39
2019-01-13T09:01:10.421Z,998.38
2019-01-13T09:02:10.430Z,998.30
2019-01-13T09:03:10.455Z,998.35
2019-01-13T09:04:10.451Z,998.28
2019-01-13T09:05:10.471Z,998.31
2019-01-13T09:06:10.491Z,998.31
2019-01-13T09:07:10.488Z,998.26
2019-01-13T09:08:10.494Z,998.18
2019-01-13T09:09:10.507Z,998.22
2019-01-13T09:10:10.522Z,998.15
2019-01-13T09:11:10.534Z,998.19
2019-01-13T09:12:10.539Z,998.18
2019-01-13T09:13:10.555Z,998.25
2019-01-13T09:14:10.559Z,998.21
2019-01-13T09:15:10.573Z,998.20
2019-01-13T09:16:10.594Z,998.17
2019-01-13T09:17:10.600Z,998.14
2019-01-13T09:18:10.608Z,998.16
2019-01-13T09:19:10.619Z,998.15
2019-01-13T09:20:10.631Z,998.10
2019-01-13T09:21:10.647Z,998.04
2019-01-13T09:22:10.657Z,998.08
2019-01-13T09:23:10.669Z,997.99
2019-01-13T09:24:10.675Z,998.04
2019-01-13T09:25:10.697Z,998.04
2019-01-13T09:26:10.708Z,998.06
2019-01-13T09:27:10.711Z,997.96
2019-01-13T09:28:10.722Z,998.02
2019-01-13T09:29:10.759Z,998.03
2019-01-13T09:30:10.755Z,998.00
2019-01-13T09:31:10.758Z,998.02
2019-01-13T09:32:10.768Z,998.06
2019-01-13T09:33:10.777Z,998.00
2019-01-13T09:34:10.787Z,997.99
2019-01-13T09:35:10.797Z,998.02
2019-01-13T09:36:10.813Z,997.91
2019-01-13T09:37:10.822Z,997.85
2019-01-13T09:38:10.836Z,997.79
2019-01-13T09:39:10.952Z,997.81
2019-01-13T09:40:10.858Z,997.78
2019-01-13T09:41:10.870Z,997.72
2019-01-13T09:42:10.879Z,997.84
2019-01-13T09:43:11.840Z,997.77
2019-01-13T09:44:10.904Z,997.75
2019-01-13T09:45:10.914Z,997.79
2019-01-13T09:46:10.924Z,997.85
2019-01-13T09:47:10.939Z,997.78
2019-01-13T09:48:10.953Z,997.81
2019-01-13T09:49:10.961Z,997.81
2019-01-13T09:50:11.033Z,997.78
2019-01-13T09:51:11.041Z,997.77
2019-01-13T09:52:10.997Z,997.77
2019-01-13T09:53:11.040Z,997.70
2019-01-13T09:54:11.015Z,997.79
2019-01-13T09:55:11.027Z,997.79
2019-01-13T09:56:11.036Z,997.81
2019-01-13T09:57:11.063Z,997.83
2019-01-13T09:58:11.064Z,997.90
2019-01-13T09:59:11.089Z,997.86
2019-01-13T10:00:11.097Z,997.84
2019-01-13T10:01:11.127Z,997.82
2019-01-13T10:02:11.104Z,997.85
2019-01-13T10:03:11.119Z,997.84
2019-01-13T10:04:11.141Z,997.87
2019-01-13T10:05:11.142Z,997.85
2019-01-13T10:06:11.156Z,997.79
2019-01-13T10:07:11.166Z,997.76
2019-01-13T10:08:11.179Z,997.79
2019-01-13T10:09:11.187Z,997.79
2019-01-13T10:10:11.198Z,997.74
2019-01-13T10:11:11.211Z,997.77
2019-01-13T10:12:11.533Z,997.72
2019-01-13T10:13:11.234Z,997.71
2019-01-13T10:14:11.246Z,997.71
2019-01-13T10:15:11.257Z,997.68
2019-01-13T10:16:11.267Z,997.65
2019-01-13T10:17:11.283Z,997.65
2019-01-13T10:18:11.297Z,997.69
2019-01-13T10:19:11.310Z,997.70
2019-01-13T10:20:11.429Z,997.61
2019-01-13T10:21:11.331Z,997.53
2019-01-13T10:22:11.337Z,997.52
2019-01-13T10:23:11.361Z,997.55
2019-01-13T10:24:11.364Z,997.51
2019-01-13T10:25:11.372Z,997.54
2019-01-13T10:26:11.396Z,997.42
2019-01-13T10:27:11.400Z,997.38
2019-01-13T10:28:11.409Z,997.33
2019-01-13T10:29:11.422Z,997.32
2019-01-13T10:30:11.430Z,997.23
2019-01-13T10:31:11.440Z,997.33
2019-01-13T10:32:11.456Z,997.37
2019-01-13T10:33:11.474Z,997.33
2019-01-13T10:34:11.474Z,997.32
2019-01-13T10:35:11.488Z,997.29
2019-01-13T10:36:11.503Z,997.29
2019-01-13T10:37:11.527Z,997.37
2019-01-13T10:38:11.527Z,997.32
2019-01-13T10:39:11.537Z,997.27
2019-01-13T10:40:11.547Z,997.26
2019-01-13T10:41:11.558Z,997.33
2019-01-13T10:42:11.567Z,997.21
2019-01-13T10:43:11.579Z,997.27
2019-01-13T10:44:11.591Z,997.27
2019-01-13T10:45:11.607Z,997.13
2019-01-13T10:46:11.618Z,997.18
2019-01-13T10:47:11.630Z,997.11
2019-01-13T10:48:11.642Z,997.11
2019-01-13T10:49:11.706Z,997.05
2019-01-13T10:50:11.763Z,997.10
2019-01-13T10:51:11.675Z,997.04
2019-01-13T10:52:11.684Z,997.05
2019-01-13T10:53:11.698Z,997.03
2019-01-13T10:54:11.715Z,997.04
2019-01-13T10:55:11.840Z,997.04
2019-01-13T10:56:11.734Z,997.07
2019-01-13T10:57:11.746Z,996.99
2019-01-13T10:58:11.756Z,996.93
2019-01-13T10:59:11.768Z,996.94
2019-01-13T11:00:11.847Z,996.98
2019-01-13T11:01:11.788Z,996.95
2019-01-13T11:02:11.828Z,996.96
2019-01-13T11:03:11.819Z,996.91
2019-01-13T11:04:11.831Z,996.94
2019-01-13T11:05:11.837Z,996.85
2019-01-13T11:06:11.851Z,996.93
2019-01-13T11:07:11.868Z,996.92
2019-01-13T11:08:11.996Z,996.91
2019-01-13T11:09:11.886Z,996.88
2019-01-13T11:10:11.897Z,996.84
2019-01-13T11:11:11.911Z,996.82
2019-01-13T11:12:11.917Z,996.74
2019-01-13T11:13:11.931Z,996.73
2019-01-13T11:14:11.943Z,996.67
2019-01-13T11:15:11.959Z,996.69
2019-01-13T11:16:12.030Z,996.72
2019-01-13T11:17:12.016Z,996.74
2019-01-13T11:18:12.002Z,996.67
2019-01-13T11:19:11.999Z,996.62
2019-01-13T11:20:12.011Z,996.67
2019-01-13T11:21:12.025Z,996.73
2019-01-13T11:22:12.043Z,996.60
2019-01-13T11:23:12.046Z,996.59
2019-01-13T11:24:12.058Z,996.57
2019-01-13T11:25:12.070Z,996.54
2019-01-13T11:26:12.091Z,996.72
2019-01-13T11:27:12.091Z,996.71
2019-01-13T11:28:12.153Z,996.50
2019-01-13T11:29:12.142Z,996.54
2019-01-13T11:30:12.131Z,996.49
2019-01-13T11:31:12.138Z,996.43
2019-01-13T11:32:12.165Z,996.41
2019-01-13T11:33:12.182Z,996.39
2019-01-13T11:34:12.174Z,996.40
2019-01-13T11:35:12.183Z,996.41
2019-01-13T11:36:12.210Z,996.41
2019-01-13T11:37:12.248Z,996.29
2019-01-13T11:38:12.219Z,996.25
2019-01-13T11:39:12.233Z,996.29
2019-01-13T11:40:12.253Z,996.21
2019-01-13T11:41:12.354Z,996.22
2019-01-13T11:42:12.271Z,996.25
2019-01-13T11:43:12.276Z,996.17
2019-01-13T11:44:12.282Z,996.06
2019-01-13T11:45:12.296Z,996.09
2019-01-13T11:46:12.311Z,996.09
2019-01-13T11:47:12.315Z,996.11
2019-01-13T11:48:12.338Z,996.15
2019-01-13T11:49:12.353Z,996.13
2019-01-13T11:50:12.354Z,996.14
2019-01-13T11:51:12.373Z,996.03
2019-01-13T11:52:12.374Z,996.07
2019-01-13T11:53:12.390Z,995.94
2019-01-13T11:54:12.407Z,995.99
2019-01-13T11:55:12.408Z,995.93
2019-01-13T11:56:13.321Z,995.88
2019-01-13T11:57:12.438Z,995.85
2019-01-13T11:58:12.450Z,995.87
2019-01-13T11:59:12.457Z,995.84
2019-01-13T12:00:12.467Z,995.96
2019-01-13T12:01:12.484Z,995.88
2019-01-13T12:02:12.496Z,995.89
2019-01-13T12:03:16.814Z,995.91
2019-01-13T12:04:12.518Z,995.90
2019-01-13T12:05:12.532Z,995.94
2019-01-13T12:06:12.542Z,995.91
2019-01-13T12:07:12.550Z,995.83
2019-01-13T12:08:12.560Z,995.74
2019-01-13T12:09:12.571Z,995.84
2019-01-13T12:10:13.997Z,995.76
2019-01-13T12:11:12.596Z,995.74
2019-01-13T12:12:12.606Z,995.65
2019-01-13T12:13:12.618Z,995.71
2019-01-13T12:14:12.629Z,995.71
2019-01-13T12:15:12.656Z,995.68
2019-01-13T12:16:12.668Z,995.67